createdAt,value
2023-01-20T00:01:48.942Z,122.40
2023-01-20T00:04:19.491Z,128.10
2023-01-20T00:06:48.174Z,112.10
2023-01-20T00:09:18.151Z,72.10
2023-01-20T00:11:46.908Z,80.20
2023-01-20T00:14:15.201Z,71.10
2023-01-20T00:16:45.657Z,80.80
2023-01-20T00:19:14.940Z,83.70
2023-01-20T00:21:43.448Z,71.20
2023-01-20T00:24:11.519Z,88.90
2023-01-20T00:26:42.570Z,92.20
2023-01-20T00:29:10.937Z,97.30
2023-01-20T00:31:39.051Z,93.70
2023-01-20T00:34:07.092Z,97.70
2023-01-20T00:36:35.525Z,99.50
2023-01-20T00:39:04.892Z,106.60
2023-01-20T00:41:32.878Z,103.40
2023-01-20T00:44:00.927Z,97.20
2023-01-20T00:46:28.920Z,96.40
2023-01-20T00:48:56.985Z,109.20
2023-01-20T00:51:25.056Z,104.00
2023-01-20T00:53:53.087Z,110.10
2023-01-20T00:56:21.047Z,99.60
2023-01-20T00:58:49.259Z,94.20
2023-01-20T01:01:17.420Z,106.40
2023-01-20T01:03:45.478Z,107.70
2023-01-20T01:06:17.108Z,115.00
2023-01-20T01:08:45.680Z,99.40
2023-01-20T01:11:14.467Z,94.50
2023-01-20T01:13:42.513Z,94.00
2023-01-20T01:16:14.128Z,87.90
2023-01-20T01:18:43.399Z,91.60
2023-01-20T01:21:15.075Z,89.80
2023-01-20T01:23:44.353Z,81.50
2023-01-20T01:26:12.766Z,75.40
2023-01-20T01:28:41.236Z,58.50
2023-01-20T01:31:10.274Z,61.20
2023-01-20T01:33:38.785Z,63.80
2023-01-20T01:36:09.533Z,70.00
2023-01-20T01:38:37.448Z,70.50
2023-01-20T01:41:06.081Z,69.60
2023-01-20T01:43:37.369Z,68.30
2023-01-20T01:46:06.211Z,67.70
2023-01-20T01:48:39.771Z,69.40
2023-01-20T01:51:19.756Z,62.20
2023-01-20T01:53:58.759Z,71.00
2023-01-20T01:56:27.653Z,65.20
2023-01-20T01:58:58.882Z,61.30
2023-01-20T02:01:29.415Z,84.30
2023-01-20T02:04:21.200Z,98.70
2023-01-20T02:13:02.773Z,75.20
2023-01-20T02:15:39.531Z,80.50
2023-01-20T02:18:25.841Z,96.70
2023-01-20T02:21:30.982Z,95.10
2023-01-20T02:24:04.886Z,85.40
2023-01-20T02:26:42.180Z,85.00
2023-01-20T02:29:35.196Z,73.40
2023-01-20T02:32:27.700Z,73.10
2023-01-20T02:35:20.261Z,58.60
2023-01-20T02:38:00.856Z,63.80
2023-01-20T02:40:39.051Z,73.10
2023-01-20T02:43:32.335Z,95.90
2023-01-20T02:46:09.961Z,96.90
2023-01-20T02:49:26.603Z,84.10
2023-01-20T02:52:02.494Z,87.20
2023-01-20T02:54:34.054Z,89.10
2023-01-20T02:57:04.908Z,89.80
2023-01-20T02:59:40.263Z,92.40
2023-01-20T03:02:18.285Z,97.40
2023-01-20T03:04:54.431Z,86.30
2023-01-20T03:07:26.088Z,98.00
2023-01-20T03:09:57.628Z,103.70
2023-01-20T03:12:38.548Z,99.80
2023-01-20T03:15:07.861Z,107.40
2023-01-20T03:17:35.933Z,105.60
2023-01-20T03:20:22.203Z,101.40
2023-01-20T03:22:50.173Z,106.80
2023-01-20T03:25:20.469Z,107.70
2023-01-20T03:27:48.834Z,116.10
2023-01-20T03:30:18.232Z,114.50
2023-01-20T03:32:48.469Z,113.40
2023-01-20T03:35:17.773Z,105.50
2023-01-20T03:37:46.191Z,104.80
2023-01-20T03:40:14.964Z,109.50
2023-01-20T03:43:15.891Z,107.30
2023-01-20T03:46:01.276Z,103.50
2023-01-20T03:48:42.587Z,99.90
2023-01-20T03:51:34.089Z,88.40
2023-01-20T03:54:10.017Z,97.70
2023-01-20T03:57:11.410Z,103.00
2023-01-20T03:59:41.301Z,89.10
2023-01-20T04:02:10.631Z,66.20
2023-01-20T04:04:42.208Z,57.50
2023-01-20T04:07:15.355Z,52.80
2023-01-20T04:09:49.081Z,49.30
2023-01-20T04:12:17.197Z,52.70
2023-01-20T04:14:45.258Z,46.90
2023-01-20T04:17:13.825Z,50.80
2023-01-20T04:19:41.911Z,50.10
2023-01-20T04:22:33.675Z,61.00
2023-01-20T04:25:14.485Z,63.10
2023-01-20T04:27:43.234Z,65.80
2023-01-20T04:30:13.965Z,68.60
2023-01-20T04:32:42.006Z,70.20
2023-01-20T04:35:16.543Z,72.20
2023-01-20T04:37:45.144Z,78.50
2023-01-20T04:40:13.769Z,73.70
2023-01-20T04:42:41.804Z,69.90
2023-01-20T04:45:16.381Z,69.00
2023-01-20T04:47:45.090Z,67.30
2023-01-20T04:50:14.254Z,69.40
2023-01-20T04:52:43.042Z,70.80
2023-01-20T04:55:11.755Z,74.70
2023-01-20T04:57:40.142Z,73.60
2023-01-20T05:00:09.731Z,75.50
2023-01-20T05:02:37.788Z,80.10
2023-01-20T05:05:06.115Z,80.00
2023-01-20T05:07:34.120Z,81.80
2023-01-20T05:10:02.039Z,82.80
2023-01-20T05:12:29.969Z,80.30
2023-01-20T05:14:57.947Z,75.00
2023-01-20T05:17:26.039Z,75.20
2023-01-20T05:19:53.985Z,82.40
2023-01-20T05:22:21.979Z,80.40
2023-01-20T05:24:50.052Z,80.20
2023-01-20T05:27:18.078Z,65.90
2023-01-20T05:29:46.051Z,74.60
2023-01-20T05:32:14.015Z,75.10
2023-01-20T05:34:42.080Z,76.10
2023-01-20T05:37:10.022Z,68.40
2023-01-20T05:39:38.109Z,65.00
2023-01-20T05:42:06.147Z,66.60
2023-01-20T05:44:35.153Z,77.90
2023-01-20T05:47:03.327Z,78.80
2023-01-20T05:49:31.254Z,77.40
2023-01-20T05:51:59.404Z,75.80
2023-01-20T05:54:27.521Z,74.70
2023-01-20T05:56:55.461Z,64.20
2023-01-20T05:59:24.029Z,55.10
2023-01-20T06:01:52.095Z,66.00
2023-01-20T06:04:20.242Z,72.50
2023-01-20T06:06:48.320Z,75.90
2023-01-20T06:09:16.355Z,75.90
2023-01-20T06:11:44.332Z,76.00
2023-01-20T06:14:12.437Z,71.80
2023-01-20T06:16:40.400Z,66.20
2023-01-20T06:19:08.404Z,68.80
2023-01-20T06:21:36.825Z,71.20
2023-01-20T06:24:05.550Z,71.70
2023-01-20T06:26:33.475Z,70.30
2023-01-20T06:29:01.747Z,72.70
2023-01-20T06:31:29.779Z,73.30
2023-01-20T06:33:57.755Z,89.40
2023-01-20T06:36:25.751Z,92.20
2023-01-20T06:38:53.815Z,93.30
2023-01-20T06:41:21.792Z,85.00
2023-01-20T06:43:51.372Z,85.30
2023-01-20T06:46:19.497Z,84.20
2023-01-20T06:48:47.530Z,81.20
2023-01-20T06:51:19.461Z,66.50
2023-01-20T06:53:47.970Z,66.90
2023-01-20T06:56:16.484Z,64.30
2023-01-20T06:58:45.014Z,56.80
2023-01-20T07:01:16.835Z,45.70
2023-01-20T07:03:45.022Z,44.10
2023-01-20T07:06:48.696Z,40.80
2023-01-20T07:09:16.857Z,54.00
2023-01-20T07:11:46.165Z,57.30
2023-01-20T07:14:14.314Z,69.70
2023-01-20T07:16:42.575Z,88.50
2023-01-20T07:19:11.382Z,58.20
2023-01-20T07:21:42.204Z,53.00
2023-01-20T07:24:10.426Z,44.40
2023-01-20T07:26:39.746Z,71.90
2023-01-20T07:29:07.840Z,65.60
2023-01-20T07:31:35.963Z,60.90
2023-01-20T07:34:04.097Z,53.90
2023-01-20T07:36:32.216Z,50.30
2023-01-20T07:39:00.399Z,47.80
2023-01-20T07:41:28.548Z,46.10
2023-01-20T07:43:56.811Z,43.90
2023-01-20T07:46:25.113Z,44.00
2023-01-20T07:48:56.748Z,42.30
2023-01-20T07:51:24.801Z,42.00
2023-01-20T07:53:52.977Z,39.20
2023-01-20T07:56:31.116Z,39.20
2023-01-20T07:58:59.501Z,39.40
2023-01-20T08:01:30.767Z,37.20
2023-01-20T08:04:03.532Z,37.50
2023-01-20T08:06:31.903Z,37.20
2023-01-20T08:09:02.230Z,32.90
2023-01-20T08:11:32.481Z,36.70
2023-01-20T08:14:00.486Z,38.20
2023-01-20T08:16:28.734Z,37.80
2023-01-20T08:18:56.980Z,36.80
2023-01-20T08:21:31.509Z,36.20
2023-01-20T08:24:02.442Z,35.60
2023-01-20T08:26:31.279Z,35.10
2023-01-20T08:29:09.688Z,38.40
2023-01-20T08:31:38.520Z,38.90
2023-01-20T08:34:06.665Z,41.00
2023-01-20T08:36:37.497Z,40.70
2023-01-20T08:39:08.886Z,44.10
2023-01-20T08:41:41.545Z,40.60
2023-01-20T08:44:11.046Z,37.90
2023-01-20T08:46:41.876Z,37.60
2023-01-20T08:49:17.020Z,35.20
2023-01-20T08:51:45.599Z,34.80
2023-01-20T08:54:15.524Z,32.10
2023-01-20T08:56:46.069Z,33.70
2023-01-20T08:59:15.642Z,33.10
2023-01-20T09:01:44.285Z,33.60
2023-01-20T09:04:12.915Z,32.20
2023-01-20T09:06:46.536Z,32.60
2023-01-20T09:09:17.081Z,32.60
2023-01-20T09:11:50.824Z,29.50
2023-01-20T09:14:21.072Z,30.10
2023-01-20T09:16:49.183Z,30.90
2023-01-20T09:19:17.620Z,30.30
2023-01-20T09:21:45.625Z,30.60
2023-01-20T09:24:13.928Z,30.30
2023-01-20T09:26:42.035Z,30.00
2023-01-20T09:29:15.835Z,31.00
2023-01-20T09:31:49.741Z,31.60
2023-01-20T09:34:24.484Z,29.30
2023-01-20T09:36:55.161Z,29.00
2023-01-20T09:39:42.898Z,30.30
2023-01-20T09:43:01.205Z,29.50
2023-01-20T09:45:42.863Z,28.80
2023-01-20T09:48:50.035Z,30.30
2023-01-20T09:51:53.875Z,30.70
2023-01-20T09:54:29.685Z,31.90
2023-01-20T09:56:59.537Z,33.20
2023-01-20T09:59:37.539Z,32.20
2023-01-20T10:02:15.268Z,32.50
2023-01-20T10:04:50.145Z,32.20
2023-01-20T10:07:26.096Z,34.60
2023-01-20T10:10:12.045Z,34.40
2023-01-20T10:13:19.721Z,32.80
2023-01-20T10:15:54.540Z,29.50
2023-01-20T10:18:53.228Z,31.90
2023-01-20T10:21:29.036Z,29.60
2023-01-20T10:24:11.156Z,26.30
2023-01-20T10:27:04.167Z,28.20
2023-01-20T10:29:43.484Z,29.70
2023-01-20T10:32:18.887Z,31.70
2023-01-20T10:34:48.668Z,30.10
2023-01-20T10:37:17.123Z,30.40
2023-01-20T10:40:11.110Z,27.30
2023-01-20T10:42:39.035Z,30.20
2023-01-20T10:45:46.379Z,29.40
2023-01-20T10:48:17.348Z,30.10
2023-01-20T10:50:55.664Z,31.10
2023-01-20T10:53:45.516Z,29.80
2023-01-20T10:56:41.393Z,28.10
2023-01-20T10:59:17.132Z,30.20
2023-01-20T11:01:56.270Z,31.80
2023-01-20T11:04:28.158Z,34.40
2023-01-20T11:07:00.435Z,36.50
2023-01-20T11:09:37.759Z,36.80
2023-01-20T11:12:15.798Z,40.00
2023-01-20T11:14:46.620Z,40.40
2023-01-20T11:17:22.985Z,41.70
2023-01-20T11:19:57.585Z,42.80
2023-01-20T11:22:35.056Z,43.60
2023-01-20T11:25:05.067Z,42.20
2023-01-20T11:27:46.185Z,42.00
2023-01-20T11:30:31.243Z,43.10
2023-01-20T11:33:20.877Z,41.00
2023-01-20T11:36:15.004Z,44.40
2023-01-20T11:38:49.533Z,44.60
2023-01-20T11:41:28.858Z,44.60
2023-01-20T11:43:59.946Z,58.80
2023-01-20T11:46:33.029Z,59.60
2023-01-20T11:49:15.786Z,60.20
2023-01-20T11:51:57.275Z,46.80
2023-01-20T11:54:30.142Z,45.30
2023-01-20T11:59:37.493Z,42.90
2023-01-20T12:02:08.486Z,43.80
2023-01-20T12:04:52.989Z,44.60
2023-01-20T12:07:34.326Z,44.60
2023-01-20T12:10:26.095Z,44.70
2023-01-20T12:13:01.396Z,46.00
2023-01-20T12:15:35.545Z,46.10
2023-01-20T12:18:17.844Z,47.10
2023-01-20T12:21:02.123Z,46.60
2023-01-20T12:24:20.218Z,49.10
2023-01-20T12:26:49.102Z,51.00
2023-01-20T12:29:46.098Z,50.30
2023-01-20T12:32:14.219Z,51.00
2023-01-20T12:34:42.236Z,55.50
2023-01-20T12:38:12.155Z,53.40
2023-01-20T12:40:48.688Z,51.80
2023-01-20T12:43:54.476Z,99.40
2023-01-20T12:46:36.746Z,91.40
2023-01-20T12:50:01.378Z,96.30
2023-01-20T12:52:45.542Z,66.90
2023-01-20T12:55:16.371Z,56.30
2023-01-20T12:58:10.233Z,56.40
2023-01-20T13:01:23.619Z,51.90
2023-01-20T13:04:22.891Z,55.20
2023-01-20T13:07:21.324Z,55.00
2023-01-20T13:10:18.515Z,58.10
2023-01-20T13:13:05.430Z,60.10
2023-01-20T13:15:39.607Z,53.70
2023-01-20T13:18:13.557Z,51.70
2023-01-20T13:20:45.755Z,50.30
2023-01-20T13:23:25.259Z,51.40
2023-01-20T13:25:53.953Z,49.40
2023-01-20T13:28:25.220Z,48.60
2023-01-20T13:30:58.917Z,45.00
2023-01-20T13:33:40.007Z,49.00
2023-01-20T13:36:22.038Z,49.10
2023-01-20T13:39:29.564Z,47.40
2023-01-20T13:41:57.511Z,45.90
2023-01-20T13:44:42.314Z,43.10
2023-01-20T13:47:11.477Z,46.60
2023-01-20T13:49:53.665Z,47.20
2023-01-20T13:52:52.976Z,53.00
2023-01-20T13:55:41.154Z,54.00
2023-01-20T13:58:27.875Z,55.40
2023-01-20T14:01:10.236Z,60.80
2023-01-20T14:03:40.073Z,55.20
2023-01-20T14:06:13.874Z,49.20
2023-01-20T14:08:50.721Z,40.70
2023-01-20T14:11:24.675Z,44.10
2023-01-20T14:14:08.173Z,43.90
2023-01-20T14:16:36.174Z,45.50
2023-01-20T14:19:30.006Z,47.90
2023-01-20T14:22:02.034Z,47.10
2023-01-20T14:24:31.223Z,44.50
2023-01-20T14:27:27.367Z,42.00
2023-01-20T14:30:03.198Z,39.60
2023-01-20T14:32:39.058Z,41.50
2023-01-20T14:35:28.133Z,43.40
2023-01-20T14:37:56.201Z,41.80
2023-01-20T14:40:29.009Z,40.80
2023-01-20T14:45:32.595Z,43.00
2023-01-20T14:48:48.216Z,44.70
2023-01-20T14:51:15.021Z,40.60
2023-01-20T14:53:41.718Z,40.00
2023-01-20T14:56:20.852Z,42.80
2023-01-20T14:58:49.015Z,39.20
2023-01-20T15:01:22.789Z,38.50
2023-01-20T15:03:58.661Z,45.60
2023-01-20T15:06:26.008Z,49.10
2023-01-20T15:09:06.125Z,46.80
2023-01-20T15:11:33.959Z,41.30
2023-01-20T15:14:00.557Z,38.10
2023-01-20T15:16:29.961Z,36.10
2023-01-20T15:19:31.221Z,37.90
2023-01-20T15:22:21.389Z,36.50
2023-01-20T15:24:49.524Z,37.50
2023-01-20T15:27:26.457Z,38.10
2023-01-20T15:30:15.346Z,36.80
2023-01-20T15:32:42.405Z,37.20
2023-01-20T15:35:13.692Z,35.40
2023-01-20T15:37:42.614Z,36.40
2023-01-20T15:40:29.725Z,37.10
2023-01-20T15:42:56.853Z,38.50
2023-01-20T15:45:28.711Z,41.50
2023-01-20T15:47:55.849Z,44.70
2023-01-20T15:50:23.726Z,44.90
2023-01-20T15:52:50.262Z,42.60
2023-01-20T15:55:18.677Z,43.90
2023-01-20T15:57:49.755Z,46.70
2023-01-20T16:00:22.817Z,43.20
2023-01-20T16:02:50.259Z,42.60
2023-01-20T16:05:17.811Z,42.20
2023-01-20T16:07:46.898Z,44.60
2023-01-20T16:10:19.041Z,53.60
2023-01-20T16:12:46.614Z,53.10
2023-01-20T16:15:16.106Z,66.40
2023-01-20T16:17:43.115Z,77.00
2023-01-20T16:20:22.801Z,54.30
2023-01-20T16:22:49.614Z,54.00
2023-01-20T16:25:16.695Z,51.20
2023-01-20T16:27:43.793Z,53.10
2023-01-20T16:30:20.501Z,52.60
2023-01-20T16:32:47.312Z,49.50
2023-01-20T16:35:16.729Z,48.00
2023-01-20T16:37:46.898Z,47.50
2023-01-20T16:40:17.494Z,45.70
2023-01-20T16:42:45.050Z,48.70
2023-01-20T16:45:25.290Z,49.40
2023-01-20T16:47:52.174Z,53.50
2023-01-20T16:50:19.541Z,56.90
2023-01-20T16:52:47.067Z,54.60
2023-01-20T16:55:14.204Z,53.10
2023-01-20T16:57:41.847Z,53.60
2023-01-20T17:00:10.007Z,51.40
2023-01-20T17:02:38.547Z,52.80
2023-01-20T17:05:08.596Z,58.10
2023-01-20T17:07:35.372Z,55.20
2023-01-20T17:10:02.908Z,51.60
2023-01-20T17:12:29.644Z,55.60
2023-01-20T17:14:56.674Z,61.50
2023-01-20T17:17:23.530Z,54.80
2023-01-20T17:19:50.336Z,57.30
2023-01-20T17:22:17.632Z,54.30
2023-01-20T17:24:44.271Z,56.80
2023-01-20T17:27:11.239Z,52.50
2023-01-20T17:29:38.039Z,55.30
2023-01-20T17:32:04.801Z,56.10
2023-01-20T17:34:31.473Z,56.90
2023-01-20T17:36:58.503Z,53.20
2023-01-20T17:39:25.462Z,52.30
2023-01-20T17:41:52.199Z,54.40
2023-01-20T17:44:19.237Z,52.00
2023-01-20T17:46:49.396Z,51.80
2023-01-20T17:49:16.340Z,53.70
2023-01-20T17:51:43.649Z,45.10
2023-01-20T17:54:10.678Z,49.20
2023-01-20T17:56:37.836Z,49.70
2023-01-20T17:59:05.129Z,46.30
2023-01-20T18:01:32.953Z,42.80
2023-01-20T18:04:03.762Z,43.50
2023-01-20T18:06:34.741Z,39.90
2023-01-20T18:09:02.651Z,39.40
2023-01-20T18:11:32.613Z,39.70
2023-01-20T18:14:01.092Z,44.40
2023-01-20T18:16:35.148Z,55.10
2023-01-20T18:19:02.603Z,52.10
2023-01-20T18:21:37.247Z,49.60
2023-01-20T18:24:06.924Z,46.60
2023-01-20T18:26:37.227Z,47.90
2023-01-20T18:29:07.684Z,51.40
2023-01-20T18:31:35.085Z,46.50
2023-01-20T18:34:05.846Z,45.40
2023-01-20T18:36:35.177Z,43.30
2023-01-20T18:39:32.528Z,39.00
2023-01-20T18:41:59.291Z,46.60
2023-01-20T18:44:26.357Z,46.90
2023-01-20T18:46:56.018Z,41.10
2023-01-20T18:49:23.065Z,43.70
2023-01-20T18:51:50.227Z,40.90
2023-01-20T18:54:24.305Z,48.50
2023-01-20T18:56:51.806Z,43.20
2023-01-20T18:59:19.335Z,41.70
2023-01-20T19:01:47.913Z,36.20
2023-01-20T19:04:15.592Z,34.70
2023-01-20T19:06:45.208Z,44.70
2023-01-20T19:09:15.292Z,37.80
2023-01-20T19:12:01.813Z,45.10
2023-01-20T19:14:30.738Z,39.10
2023-01-20T19:17:00.116Z,39.00
2023-01-20T19:19:29.209Z,36.00
2023-01-20T19:21:58.327Z,33.60
2023-01-20T19:24:29.227Z,33.00
2023-01-20T19:27:00.481Z,31.80
2023-01-20T19:29:30.452Z,34.40
2023-01-20T19:31:59.418Z,35.00
2023-01-20T19:35:11.992Z,34.30
2023-01-20T19:37:41.114Z,36.60
2023-01-20T19:40:11.794Z,37.30
2023-01-20T19:42:40.882Z,35.40
2023-01-20T19:45:10.892Z,43.70
2023-01-20T19:47:43.276Z,35.10
2023-01-20T19:52:43.533Z,32.90
2023-01-20T19:55:13.197Z,31.70
2023-01-20T19:57:42.726Z,31.70
2023-01-20T20:00:14.083Z,32.40
2023-01-20T20:02:43.322Z,34.30
2023-01-20T20:05:13.149Z,32.20
2023-01-20T20:07:42.477Z,36.90
2023-01-20T20:10:12.125Z,33.80
2023-01-20T20:12:41.377Z,37.00
2023-01-20T20:15:11.595Z,37.50
2023-01-20T20:17:44.509Z,39.80
2023-01-20T20:20:13.810Z,39.70
2023-01-20T20:22:42.827Z,32.80
2023-01-20T20:25:11.974Z,32.00
2023-01-20T20:27:41.298Z,35.00
2023-01-20T20:30:11.815Z,35.20
2023-01-20T20:32:43.551Z,36.10
2023-01-20T20:35:15.205Z,32.60
2023-01-20T20:37:47.620Z,37.60
2023-01-20T20:40:17.553Z,32.30
2023-01-20T20:42:48.803Z,30.90
2023-01-20T20:45:20.388Z,32.60
2023-01-20T20:47:49.676Z,32.50
2023-01-20T20:50:19.284Z,31.90
2023-01-20T20:52:50.774Z,35.30
2023-01-20T20:55:20.190Z,33.30
2023-01-20T20:57:50.162Z,34.00
2023-01-20T21:00:23.620Z,32.00
2023-01-20T21:02:52.917Z,34.90
2023-01-20T21:05:22.210Z,32.20
2023-01-20T21:07:51.473Z,30.80
2023-01-20T21:10:21.432Z,28.20
2023-01-20T21:19:17.162Z,27.20
2023-01-20T21:21:46.675Z,24.60
2023-01-20T21:24:15.772Z,27.00
2023-01-20T21:26:45.082Z,27.40
2023-01-20T21:29:14.565Z,24.80
2023-01-20T21:31:47.601Z,25.70
2023-01-20T21:34:21.555Z,24.70
2023-01-20T21:36:50.738Z,24.60
2023-01-20T21:39:20.829Z,23.40
2023-01-20T21:41:50.304Z,24.80
2023-01-20T21:44:28.542Z,25.40
2023-01-20T21:47:10.684Z,25.10
2023-01-20T21:50:01.437Z,25.70
2023-01-20T21:52:42.615Z,25.10
2023-01-20T21:55:19.510Z,24.90
2023-01-20T21:57:51.341Z,26.00
2023-01-20T22:00:21.201Z,26.30
2023-01-20T22:02:49.949Z,24.00
2023-01-20T22:05:18.970Z,24.60
2023-01-20T22:07:48.540Z,24.70
2023-01-20T22:10:17.277Z,24.30
2023-01-20T22:12:45.904Z,23.70
2023-01-20T22:15:14.351Z,24.90
2023-01-20T22:17:43.053Z,23.40
2023-01-20T22:20:11.878Z,24.10
2023-01-20T22:22:40.205Z,22.50
2023-01-20T22:25:09.524Z,20.90
2023-01-20T22:27:37.681Z,22.20
2023-01-20T22:30:06.685Z,22.50
2023-01-20T22:32:34.776Z,23.30
2023-01-20T22:35:02.947Z,22.50
2023-01-20T22:37:31.625Z,22.40
2023-01-20T22:39:59.977Z,22.90
2023-01-20T22:42:28.011Z,24.30
2023-01-20T22:44:56.112Z,25.60
2023-01-20T22:47:24.093Z,25.00
2023-01-20T22:49:56.860Z,26.00
2023-01-20T22:52:25.092Z,23.30
2023-01-20T22:54:53.420Z,22.90
2023-01-20T22:57:21.423Z,22.60
2023-01-20T22:59:49.385Z,23.80
2023-01-20T23:02:17.379Z,27.20
2023-01-20T23:04:45.310Z,28.50
2023-01-20T23:07:14.404Z,24.80
2023-01-20T23:09:42.572Z,24.20
2023-01-20T23:12:10.514Z,23.20
2023-01-20T23:14:57.155Z,25.80
2023-01-20T23:17:29.879Z,25.50
2023-01-20T23:19:58.268Z,22.80
2023-01-20T23:22:26.308Z,23.20
2023-01-20T23:24:54.253Z,24.90
2023-01-20T23:27:22.161Z,23.70
2023-01-20T23:29:50.347Z,23.90
2023-01-20T23:32:20.997Z,23.30
2023-01-20T23:34:48.998Z,23.00
2023-01-20T23:37:17.421Z,22.40
2023-01-20T23:39:45.357Z,22.40
2023-01-20T23:42:13.320Z,21.90
2023-01-20T23:44:41.348Z,20.50
2023-01-20T23:47:10.580Z,20.80
2023-01-20T23:49:38.596Z,22.40
2023-01-20T23:52:06.584Z,21.80
2023-01-20T23:54:34.616Z,21.20
2023-01-20T23:57:02.787Z,19.90
2023-01-20T23:59:30.860Z,21.00
